createdAt,value
2018-10-19T00:00:41.507Z,72.08
2018-10-19T00:03:09.182Z,71.66
2018-10-19T00:05:36.634Z,71.69
2018-10-19T00:08:04.213Z,71.48
2018-10-19T00:10:31.891Z,71.84
2018-10-19T00:12:59.457Z,71.76
2018-10-19T00:15:27.162Z,71.54
2018-10-19T00:17:54.700Z,71.75
2018-10-19T00:20:22.297Z,71.57
2018-10-19T00:22:49.830Z,71.39
2018-10-19T00:25:17.425Z,71.48
2018-10-19T00:27:45.067Z,71.29
2018-10-19T00:30:12.621Z,71.34
2018-10-19T00:32:40.336Z,71.63
2018-10-19T00:35:08.520Z,71.73
2018-10-19T00:37:36.050Z,71.58
2018-10-19T00:40:03.604Z,71.67
2018-10-19T00:42:31.377Z,71.62
2018-10-19T00:44:59.144Z,71.33
2018-10-19T00:47:26.719Z,71.64
2018-10-19T00:49:54.313Z,71.50
2018-10-19T00:52:21.903Z,71.60
2018-10-19T00:54:49.432Z,71.68
2018-10-19T00:57:17.086Z,71.31
2018-10-19T00:59:44.765Z,71.77
2018-10-19T01:02:12.321Z,71.89
2018-10-19T01:04:39.879Z,72.02
2018-10-19T01:07:08.504Z,71.60
2018-10-19T01:09:36.050Z,71.80
2018-10-19T01:12:03.589Z,71.39
2018-10-19T01:14:31.163Z,71.60
2018-10-19T01:16:58.818Z,71.60
2018-10-19T01:19:26.338Z,71.39
2018-10-19T01:21:53.917Z,71.49
2018-10-19T01:24:21.548Z,71.54
2018-10-19T01:26:49.123Z,71.46
2018-10-19T01:29:16.752Z,71.36
2018-10-19T01:31:44.295Z,71.39
2018-10-19T01:34:11.814Z,71.11
2018-10-19T01:36:39.459Z,71.23
2018-10-19T01:39:07.045Z,70.93
2018-10-19T01:41:34.613Z,71.16
2018-10-19T01:44:02.175Z,71.21
2018-10-19T01:46:29.919Z,71.43
2018-10-19T01:48:57.464Z,71.41
2018-10-19T01:51:25.069Z,71.37
2018-10-19T01:53:52.656Z,71.25
2018-10-19T01:56:20.230Z,71.30
2018-10-19T01:58:47.795Z,71.26
2018-10-19T02:01:15.324Z,71.46
2018-10-19T02:03:42.894Z,71.48
2018-10-19T02:06:10.434Z,71.46
2018-10-19T02:08:37.950Z,71.58
2018-10-19T02:11:05.612Z,71.81
2018-10-19T02:13:33.121Z,71.86
2018-10-19T02:16:00.692Z,71.47
2018-10-19T02:18:28.243Z,71.94
2018-10-19T02:20:55.919Z,71.92
2018-10-19T02:23:23.471Z,72.15
2018-10-19T02:25:51.036Z,72.07
2018-10-19T02:28:18.594Z,71.65
2018-10-19T02:30:46.166Z,71.84
2018-10-19T02:33:13.796Z,72.10
2018-10-19T02:35:41.264Z,72.10
2018-10-19T02:38:08.859Z,72.21
2018-10-19T02:40:36.418Z,72.14
2018-10-19T02:43:03.984Z,72.04
2018-10-19T02:45:31.504Z,72.00
2018-10-19T02:47:59.069Z,71.77
2018-10-19T02:50:26.634Z,71.91
2018-10-19T02:52:54.234Z,71.71
2018-10-19T02:55:21.775Z,71.94
2018-10-19T02:57:49.305Z,72.25
2018-10-19T03:00:16.892Z,72.05
2018-10-19T03:02:44.410Z,72.00
2018-10-19T03:05:12.029Z,72.00
2018-10-19T03:07:39.595Z,72.23
2018-10-19T03:10:07.154Z,71.95
2018-10-19T03:12:34.703Z,72.28
2018-10-19T03:15:02.325Z,71.75
2018-10-19T03:17:29.860Z,72.03
2018-10-19T03:19:57.445Z,72.35
2018-10-19T03:22:24.968Z,72.44
2018-10-19T03:24:52.570Z,72.91
2018-10-19T03:27:20.232Z,72.90
2018-10-19T03:29:47.856Z,72.93
2018-10-19T03:32:15.428Z,73.21
2018-10-19T03:34:42.943Z,73.00
2018-10-19T03:37:10.513Z,73.51
2018-10-19T03:39:38.061Z,73.38
2018-10-19T03:42:05.735Z,74.01
2018-10-19T03:44:33.264Z,73.75
2018-10-19T03:47:01.007Z,73.42
2018-10-19T03:49:28.519Z,73.42
2018-10-19T03:51:56.069Z,73.69
2018-10-19T03:54:23.677Z,73.97
2018-10-19T03:56:51.248Z,73.82
2018-10-19T03:59:18.953Z,73.71
2018-10-19T04:01:46.405Z,74.03
2018-10-19T04:04:14.097Z,74.55
2018-10-19T04:06:41.871Z,74.17
2018-10-19T04:09:09.437Z,74.13
2018-10-19T04:11:37.103Z,74.15
2018-10-19T04:14:04.641Z,74.15
2018-10-19T04:16:32.198Z,74.25
2018-10-19T04:18:59.773Z,74.35
2018-10-19T04:21:27.296Z,74.48
2018-10-19T04:23:55.017Z,74.22
2018-10-19T04:26:22.597Z,74.38
2018-10-19T04:28:50.181Z,74.41
2018-10-19T04:31:17.932Z,74.46
2018-10-19T04:33:45.511Z,74.22
2018-10-19T04:36:13.064Z,74.46
2018-10-19T04:38:40.661Z,74.21
2018-10-19T04:41:08.241Z,74.15
2018-10-19T04:43:35.889Z,74.26
2018-10-19T04:46:03.444Z,74.06
2018-10-19T04:48:31.127Z,74.13
2018-10-19T04:50:58.664Z,73.97
2018-10-19T04:53:26.360Z,73.97
2018-10-19T04:55:53.850Z,74.25
2018-10-19T04:58:24.921Z,73.82
2018-10-19T05:00:52.647Z,74.05
2018-10-19T05:03:20.203Z,73.80
2018-10-19T05:05:47.949Z,73.89
2018-10-19T05:08:15.602Z,74.23
2018-10-19T05:10:43.161Z,73.78
2018-10-19T05:13:10.971Z,74.04
2018-10-19T05:15:38.466Z,73.57
2018-10-19T05:18:06.041Z,73.83
2018-10-19T05:20:33.574Z,73.80
2018-10-19T05:23:01.176Z,73.71
2018-10-19T05:25:28.688Z,74.12
2018-10-19T05:27:56.384Z,74.00
2018-10-19T05:30:23.910Z,73.91
2018-10-19T05:32:51.509Z,73.94
2018-10-19T05:35:19.087Z,73.90
2018-10-19T05:37:46.698Z,73.82
2018-10-19T05:40:14.273Z,73.80
2018-10-19T05:42:41.808Z,73.84
2018-10-19T05:45:09.391Z,73.60
2018-10-19T05:47:36.936Z,73.80
2018-10-19T05:50:04.669Z,73.54
2018-10-19T05:52:32.243Z,73.48
2018-10-19T05:54:59.906Z,73.57
2018-10-19T05:57:27.636Z,73.65
2018-10-19T05:59:55.256Z,73.49
2018-10-19T06:02:22.992Z,73.84
2018-10-19T06:04:50.617Z,73.31
2018-10-19T06:07:18.207Z,73.77
2018-10-19T06:09:47.720Z,73.74
2018-10-19T06:12:15.268Z,73.09
2018-10-19T06:14:43.376Z,73.33
2018-10-19T06:17:12.389Z,73.07
2018-10-19T06:19:40.095Z,73.31
2018-10-19T06:22:08.740Z,73.31
2018-10-19T06:24:37.198Z,73.40
2018-10-19T06:27:04.909Z,73.73
2018-10-19T06:29:33.345Z,73.40
2018-10-19T06:32:01.102Z,73.46
2018-10-19T06:34:29.779Z,73.71
2018-10-19T06:36:57.600Z,73.87
2018-10-19T06:39:25.594Z,73.34
2018-10-19T06:41:53.255Z,73.52
2018-10-19T06:44:21.599Z,73.38
2018-10-19T06:46:49.258Z,73.39
2018-10-19T06:49:16.740Z,73.83
2018-10-19T06:51:44.337Z,73.70
2018-10-19T06:54:13.008Z,73.88
2018-10-19T06:56:40.592Z,73.56
2018-10-19T06:59:08.348Z,74.21
2018-10-19T07:01:35.809Z,74.22
2018-10-19T07:04:03.375Z,73.97
2018-10-19T07:06:30.918Z,73.67
2018-10-19T07:08:58.679Z,73.88
2018-10-19T07:11:26.268Z,74.23
2018-10-19T07:13:53.863Z,74.37
2018-10-19T07:16:21.405Z,73.93
2018-10-19T07:18:48.981Z,74.24
2018-10-19T07:21:16.498Z,74.07
2018-10-19T07:23:44.073Z,73.74
2018-10-19T07:26:12.275Z,73.68
2018-10-19T07:28:40.173Z,73.59
2018-10-19T07:31:08.639Z,73.57
2018-10-19T07:33:37.502Z,73.60
2018-10-19T07:36:05.490Z,73.64
2018-10-19T07:38:33.319Z,73.58
2018-10-19T07:41:01.192Z,73.79
2018-10-19T07:43:29.074Z,73.56
2018-10-19T07:45:56.921Z,73.80
2018-10-19T07:48:24.703Z,73.23
2018-10-19T07:50:52.326Z,73.42
2018-10-19T07:53:19.898Z,73.75
2018-10-19T07:55:47.479Z,73.42
2018-10-19T07:58:15.040Z,73.55
2018-10-19T08:00:42.733Z,73.74
2018-10-19T08:03:10.314Z,73.78
2018-10-19T08:05:38.414Z,73.36
2018-10-19T08:08:06.360Z,73.63
2018-10-19T08:10:34.288Z,73.29
2018-10-19T08:13:02.343Z,72.72
2018-10-19T08:15:29.998Z,73.13
2018-10-19T08:17:57.560Z,72.50
2018-10-19T08:20:25.176Z,72.15
2018-10-19T08:22:52.921Z,72.19
2018-10-19T08:25:20.690Z,72.52
2018-10-19T08:27:48.415Z,72.41
2018-10-19T08:30:16.030Z,73.02
2018-10-19T08:32:43.569Z,72.71
2018-10-19T08:35:11.198Z,72.73
2018-10-19T08:37:39.007Z,72.64
2018-10-19T08:40:06.697Z,72.76
2018-10-19T08:42:34.246Z,72.69
2018-10-19T08:45:02.004Z,72.57
2018-10-19T08:47:29.553Z,72.26
2018-10-19T08:49:58.211Z,72.14
2018-10-19T08:52:25.807Z,71.51
2018-10-19T08:54:53.626Z,71.17
2018-10-19T08:57:21.152Z,71.26
2018-10-19T08:59:48.759Z,71.14
2018-10-19T09:02:16.311Z,71.32
2018-10-19T09:04:44.076Z,71.92
2018-10-19T09:07:11.808Z,71.90
2018-10-19T09:09:39.382Z,71.73
2018-10-19T09:12:06.992Z,71.37
2018-10-19T09:14:35.635Z,71.22
2018-10-19T09:17:03.458Z,71.22
2018-10-19T09:19:30.930Z,71.28
2018-10-19T09:21:58.461Z,70.96
2018-10-19T09:24:26.033Z,71.02
2018-10-19T09:26:53.602Z,71.56
2018-10-19T09:29:21.193Z,71.33
2018-10-19T09:31:48.857Z,71.57
2018-10-19T09:34:16.402Z,71.79
2018-10-19T09:36:44.405Z,71.64
2018-10-19T09:39:11.838Z,71.30
2018-10-19T09:41:39.441Z,72.02
2018-10-19T09:44:07.054Z,71.60
2018-10-19T09:46:34.662Z,71.77
2018-10-19T09:49:02.321Z,71.92
2018-10-19T09:51:29.861Z,71.66
2018-10-19T09:53:57.497Z,71.47
2018-10-19T09:56:25.035Z,71.58
2018-10-19T09:58:52.623Z,71.65
2018-10-19T10:01:20.164Z,71.65
2018-10-19T10:03:48.135Z,71.98
2018-10-19T10:06:15.733Z,71.68
2018-10-19T10:08:43.457Z,71.93
2018-10-19T10:11:11.117Z,71.98
2018-10-19T10:13:38.681Z,72.05
2018-10-19T10:16:07.107Z,71.98
2018-10-19T10:18:34.772Z,71.44
2018-10-19T10:21:02.376Z,71.53
2018-10-19T10:23:29.908Z,71.28
2018-10-19T10:25:57.555Z,71.44
2018-10-19T10:28:25.122Z,71.49
2018-10-19T10:30:52.704Z,71.55
2018-10-19T10:33:20.279Z,71.61
2018-10-19T10:35:47.831Z,71.65
2018-10-19T10:38:15.455Z,71.95
2018-10-19T10:40:42.990Z,71.61
2018-10-19T10:43:10.632Z,71.67
2018-10-19T10:45:38.256Z,71.63
2018-10-19T10:48:05.816Z,71.02
2018-10-19T10:50:33.389Z,71.08
2018-10-19T10:53:00.911Z,71.12
2018-10-19T10:55:28.619Z,70.84
2018-10-19T10:57:56.339Z,70.69
2018-10-19T11:00:23.917Z,70.73
2018-10-19T11:02:51.499Z,70.86
2018-10-19T11:05:19.059Z,70.63
2018-10-19T11:07:46.660Z,70.30
2018-10-19T11:10:14.246Z,70.16
2018-10-19T11:12:41.758Z,70.10
2018-10-19T11:15:09.293Z,69.78
2018-10-19T11:17:36.924Z,69.68
2018-10-19T11:20:04.606Z,69.82
2018-10-19T11:22:32.152Z,69.95
2018-10-19T11:24:59.978Z,69.84
2018-10-19T11:27:27.574Z,69.86
2018-10-19T11:29:56.506Z,69.68
2018-10-19T11:32:24.089Z,69.18
2018-10-19T11:34:51.657Z,69.29
2018-10-19T11:37:19.428Z,69.02
2018-10-19T11:39:47.000Z,68.88
2018-10-19T11:42:14.541Z,68.85
2018-10-19T11:44:42.113Z,68.88
2018-10-19T11:47:09.710Z,69.07
2018-10-19T11:49:37.271Z,68.50
2018-10-19T11:52:05.093Z,68.34
2018-10-19T11:54:32.830Z,68.24
2018-10-19T11:57:00.401Z,68.45
2018-10-19T11:59:28.024Z,68.36
2018-10-19T12:01:55.590Z,68.40
2018-10-19T12:04:23.256Z,68.40
2018-10-19T12:06:50.818Z,68.31
2018-10-19T12:09:18.345Z,68.06
2018-10-19T12:11:45.867Z,68.29
2018-10-19T12:14:13.433Z,67.97
2018-10-19T12:16:41.132Z,68.02
2018-10-19T12:19:08.707Z,68.17
2018-10-19T12:21:36.229Z,68.10
2018-10-19T12:24:03.769Z,68.07
2018-10-19T12:26:31.350Z,68.25
2018-10-19T12:28:59.073Z,68.03
2018-10-19T12:31:26.873Z,68.19
2018-10-19T12:33:54.399Z,67.94
2018-10-19T12:36:22.111Z,68.43
2018-10-19T12:38:49.678Z,68.04
2018-10-19T12:41:17.357Z,68.41
2018-10-19T12:43:45.051Z,68.24
2018-10-19T12:46:24.397Z,67.95
2018-10-19T12:48:51.962Z,67.73
2018-10-19T12:51:19.493Z,67.54
2018-10-19T12:53:47.096Z,67.36
2018-10-19T12:56:14.648Z,67.10
2018-10-19T12:58:42.210Z,66.93
2018-10-19T13:01:09.759Z,66.90
2018-10-19T13:03:37.437Z,66.66
2018-10-19T13:06:04.896Z,66.60
2018-10-19T13:08:32.492Z,66.19
2018-10-19T13:11:00.025Z,66.29
2018-10-19T13:13:27.640Z,66.39
2018-10-19T13:15:55.243Z,66.10
2018-10-19T13:18:22.799Z,66.14
2018-10-19T13:20:50.381Z,65.89
2018-10-19T13:23:17.976Z,65.89
2018-10-19T13:25:45.502Z,65.76
2018-10-19T13:28:13.014Z,66.05
2018-10-19T13:30:40.574Z,66.10
2018-10-19T13:33:08.573Z,66.04
2018-10-19T13:35:36.098Z,66.00
2018-10-19T13:38:03.682Z,65.77
2018-10-19T13:40:31.248Z,65.93
2018-10-19T13:42:58.821Z,65.82
2018-10-19T13:45:26.438Z,65.70
2018-10-19T13:47:54.100Z,66.02
2018-10-19T13:50:21.682Z,65.93
2018-10-19T13:52:49.279Z,65.74
2018-10-19T13:55:16.827Z,65.73
2018-10-19T13:57:44.438Z,65.56
2018-10-19T14:00:11.995Z,66.01
2018-10-19T14:02:39.608Z,66.01
2018-10-19T14:05:07.168Z,65.95
2018-10-19T14:07:34.761Z,66.14
2018-10-19T14:10:02.308Z,65.84
2018-10-19T14:12:29.846Z,65.94
2018-10-19T14:14:57.425Z,65.75
2018-10-19T14:17:25.152Z,65.53
2018-10-19T14:19:53.382Z,65.62
2018-10-19T14:22:21.462Z,65.77
2018-10-19T14:24:49.651Z,65.96
2018-10-19T14:27:17.652Z,65.80
2018-10-19T14:29:45.775Z,65.71
2018-10-19T14:32:13.980Z,65.95
2018-10-19T14:34:42.094Z,65.77
2018-10-19T14:37:10.735Z,65.95
2018-10-19T14:39:38.913Z,65.73
2018-10-19T14:42:06.979Z,65.87
2018-10-19T14:44:35.024Z,65.76
2018-10-19T14:47:03.209Z,65.98
2018-10-19T14:49:31.216Z,65.92
2018-10-19T14:51:59.104Z,65.97
2018-10-19T14:54:27.103Z,65.77
2018-10-19T14:56:55.160Z,65.98
2018-10-19T14:59:24.166Z,65.88
2018-10-19T15:01:52.704Z,65.83
2018-10-19T15:04:22.025Z,65.53
2018-10-19T15:06:50.994Z,65.81
2018-10-19T15:09:18.918Z,66.14
2018-10-19T15:11:46.568Z,65.84
2018-10-19T15:14:14.213Z,65.93
2018-10-19T15:16:42.501Z,65.92
2018-10-19T15:19:10.729Z,65.96
2018-10-19T15:21:38.827Z,66.17
2018-10-19T15:24:07.039Z,66.12
2018-10-19T15:26:36.055Z,66.05
2018-10-19T15:29:05.126Z,66.03
2018-10-19T15:31:32.752Z,66.00
2018-10-19T15:34:00.665Z,65.99
2018-10-19T15:36:28.360Z,65.99
2018-10-19T15:38:57.926Z,65.94
2018-10-19T15:41:25.586Z,65.85
2018-10-19T15:43:54.648Z,66.05
2018-10-19T15:46:22.662Z,66.17
2018-10-19T15:48:51.103Z,65.91
2018-10-19T15:51:18.714Z,65.96
2018-10-19T15:53:46.318Z,65.80
2018-10-19T15:56:13.975Z,65.62
2018-10-19T15:58:42.690Z,65.84
2018-10-19T16:01:12.006Z,65.76
2018-10-19T16:03:39.669Z,65.74
2018-10-19T16:06:07.730Z,65.75
2018-10-19T16:08:35.554Z,65.77
2018-10-19T16:11:03.945Z,65.61
2018-10-19T16:13:31.521Z,65.73
2018-10-19T16:15:59.092Z,65.88
2018-10-19T16:18:26.962Z,65.91
2018-10-19T16:20:55.258Z,66.03
2018-10-19T16:23:23.179Z,65.96
2018-10-19T16:25:50.795Z,65.73
2018-10-19T16:28:18.686Z,65.92
2018-10-19T16:30:46.264Z,65.77
2018-10-19T16:33:13.893Z,65.94
2018-10-19T16:35:41.420Z,65.79
2018-10-19T16:38:09.030Z,65.94
2018-10-19T16:40:36.807Z,65.92
2018-10-19T16:43:04.501Z,65.79
2018-10-19T16:45:32.575Z,65.79
2018-10-19T16:48:00.542Z,65.74
2018-10-19T16:50:28.184Z,65.58
2018-10-19T16:52:55.905Z,65.57
2018-10-19T16:55:23.489Z,65.58
2018-10-19T16:57:51.133Z,65.70
2018-10-19T17:00:18.723Z,65.72
2018-10-19T17:02:46.346Z,65.74
2018-10-19T17:05:14.109Z,65.89
2018-10-19T17:07:41.712Z,65.77
2018-10-19T17:10:09.369Z,65.72
2018-10-19T17:12:36.925Z,65.91
2018-10-19T17:15:04.694Z,65.94
2018-10-19T17:17:32.327Z,66.06
2018-10-19T17:19:59.912Z,65.98
2018-10-19T17:22:27.505Z,65.94
2018-10-19T17:24:55.111Z,65.90
2018-10-19T17:27:22.709Z,66.09
2018-10-19T17:29:50.243Z,65.69
2018-10-19T17:32:17.784Z,65.73
2018-10-19T17:34:45.474Z,65.58
2018-10-19T17:37:13.251Z,65.96
2018-10-19T17:39:41.014Z,65.96
2018-10-19T17:42:08.803Z,65.61
2018-10-19T17:44:36.332Z,66.36
2018-10-19T17:47:04.065Z,66.35
2018-10-19T17:49:31.841Z,66.43
2018-10-19T17:51:59.531Z,66.37
2018-10-19T17:57:19.800Z,66.35
2018-10-19T17:59:47.389Z,66.76
2018-10-19T18:02:15.206Z,67.42
2018-10-19T18:04:43.280Z,67.32
2018-10-19T18:07:11.007Z,67.00
2018-10-19T18:09:38.830Z,66.56
2018-10-19T18:12:06.577Z,65.90
2018-10-19T18:14:34.343Z,66.06
2018-10-19T18:17:02.072Z,66.09
2018-10-19T18:19:29.894Z,67.56
2018-10-19T18:21:57.768Z,67.91
2018-10-19T18:24:25.231Z,67.66
2018-10-19T18:26:52.804Z,67.89
2018-10-19T18:29:20.412Z,68.17
2018-10-19T18:31:48.055Z,67.70
2018-10-19T18:34:15.633Z,67.90
2018-10-19T18:36:43.214Z,67.81
2018-10-19T18:39:10.803Z,67.41
2018-10-19T18:41:38.444Z,66.89
2018-10-19T18:44:06.027Z,67.56
2018-10-19T18:46:33.586Z,66.89
2018-10-19T18:49:01.115Z,67.19
2018-10-19T18:51:28.687Z,67.06
2018-10-19T18:53:56.415Z,66.70
2018-10-19T18:56:23.965Z,66.38
2018-10-19T18:58:51.558Z,66.18
2018-10-19T19:01:19.147Z,66.07
2018-10-19T19:03:46.682Z,66.05
2018-10-19T19:06:14.277Z,66.13
2018-10-19T19:08:41.842Z,66.03
2018-10-19T19:11:09.527Z,65.89
2018-10-19T19:13:37.014Z,65.74
2018-10-19T19:16:04.589Z,65.78
2018-10-19T19:18:32.126Z,65.57
2018-10-19T19:20:59.719Z,65.83
2018-10-19T19:23:27.311Z,65.81
2018-10-19T19:26:09.779Z,65.89
2018-10-19T19:28:37.328Z,65.84
2018-10-19T19:31:04.843Z,65.87
2018-10-19T19:33:32.410Z,65.91
2018-10-19T19:36:00.146Z,66.27
2018-10-19T19:38:27.878Z,66.28
2018-10-19T19:40:55.458Z,66.21
2018-10-19T19:43:23.042Z,66.44
2018-10-19T19:45:50.591Z,66.41
2018-10-19T19:48:23.618Z,66.20
2018-10-19T19:50:51.182Z,66.16
2018-10-19T19:53:18.718Z,66.29
2018-10-19T19:55:46.328Z,66.34
2018-10-19T19:58:13.971Z,66.38
2018-10-19T20:00:41.469Z,66.41
2018-10-19T20:03:09.252Z,66.39
2018-10-19T20:05:36.847Z,66.33
2018-10-19T20:08:04.523Z,66.32
2018-10-19T20:10:32.021Z,66.64
2018-10-19T20:12:59.597Z,66.68
2018-10-19T20:15:27.125Z,66.64
2018-10-19T20:17:54.701Z,66.51
2018-10-19T20:20:22.240Z,66.43
2018-10-19T20:22:49.811Z,66.32
2018-10-19T20:25:17.363Z,65.87
2018-10-19T20:27:44.922Z,65.75
2018-10-19T20:30:12.507Z,66.21
2018-10-19T20:32:40.194Z,66.19
2018-10-19T20:35:07.754Z,65.85
2018-10-19T20:37:35.312Z,64.90
2018-10-19T20:40:02.854Z,65.27
2018-10-19T20:42:30.776Z,65.39
2018-10-19T20:44:58.597Z,64.75
2018-10-19T20:47:26.673Z,64.91
2018-10-19T20:49:54.303Z,64.70
2018-10-19T20:52:21.821Z,64.97
2018-10-19T20:54:49.551Z,64.79
2018-10-19T20:57:17.138Z,64.89
2018-10-19T20:59:44.674Z,65.58
2018-10-19T21:02:12.328Z,66.16
2018-10-19T21:04:39.848Z,66.19
2018-10-19T21:07:08.703Z,65.89
2018-10-19T21:09:36.219Z,66.24
2018-10-19T21:12:03.794Z,66.00
2018-10-19T21:14:31.401Z,65.38
2018-10-19T21:16:58.995Z,65.62
2018-10-19T21:19:26.604Z,65.88
2018-10-19T21:21:54.329Z,65.98
2018-10-19T21:24:21.891Z,66.04
2018-10-19T21:26:49.422Z,65.56
2018-10-19T21:29:17.012Z,66.24
2018-10-19T21:31:44.588Z,66.11
2018-10-19T21:34:12.301Z,66.09
2018-10-19T21:36:39.832Z,65.79
2018-10-19T21:39:07.395Z,65.39
2018-10-19T21:41:34.969Z,65.59
2018-10-19T21:44:02.563Z,65.59
2018-10-19T21:46:30.218Z,65.57
2018-10-19T21:48:57.764Z,65.81
2018-10-19T21:51:25.364Z,66.04
2018-10-19T21:53:52.916Z,66.68
2018-10-19T21:56:20.445Z,67.15
2018-10-19T21:58:48.018Z,67.11
2018-10-19T22:01:15.576Z,66.93
2018-10-19T22:03:43.312Z,67.25
2018-10-19T22:06:10.892Z,66.92
2018-10-19T22:08:38.564Z,66.80
2018-10-19T22:11:06.155Z,66.76
2018-10-19T22:13:33.690Z,67.54
2018-10-19T22:16:01.267Z,67.08
2018-10-19T22:18:28.806Z,66.66
2018-10-19T22:20:56.494Z,66.39
2018-10-19T22:23:24.140Z,66.21
2018-10-19T22:25:51.661Z,66.75
2018-10-19T22:28:19.458Z,67.03
2018-10-19T22:30:46.987Z,67.12
2018-10-19T22:33:14.552Z,67.80
2018-10-19T22:35:42.084Z,68.01
2018-10-19T22:38:09.656Z,67.60
2018-10-19T22:40:37.182Z,67.35
2018-10-19T22:43:04.850Z,66.86
2018-10-19T22:45:32.437Z,66.54
2018-10-19T22:48:00.028Z,66.54
2018-10-19T22:50:27.801Z,66.34
2018-10-19T22:52:55.380Z,65.19
2018-10-19T22:55:23.023Z,65.45
2018-10-19T22:57:50.590Z,65.81
2018-10-19T23:00:18.142Z,65.87
2018-10-19T23:02:45.733Z,65.52
2018-10-19T23:05:13.294Z,64.86
2018-10-19T23:07:40.832Z,65.79
2018-10-19T23:10:08.420Z,65.45
2018-10-19T23:12:35.951Z,65.75
2018-10-19T23:15:03.644Z,66.80
2018-10-19T23:17:31.170Z,66.63
2018-10-19T23:19:58.809Z,66.96
2018-10-19T23:22:26.360Z,67.41
2018-10-19T23:24:53.971Z,67.75
2018-10-19T23:27:21.509Z,67.50
2018-10-19T23:29:49.291Z,67.48
2018-10-19T23:32:16.887Z,67.63
2018-10-19T23:34:44.445Z,66.77
2018-10-19T23:37:12.069Z,67.27
2018-10-19T23:39:39.559Z,66.00
2018-10-19T23:44:38.569Z,66.41
2018-10-19T23:47:06.198Z,67.82
2018-10-19T23:49:33.772Z,67.81
2018-10-19T23:52:01.306Z,66.60
2018-10-19T23:54:28.886Z,65.50
2018-10-19T23:56:56.416Z,67.03
2018-10-19T23:59:24.015Z,66.90
